createdAt,value
2023-04-10T00:01:19.865Z,101784.13
2023-04-10T00:03:48.136Z,101775.25
2023-04-10T00:06:16.290Z,101775.00
2023-04-10T00:08:44.311Z,101781.66
2023-04-10T00:11:12.285Z,101771.97
2023-04-10T00:13:43.408Z,101773.50
2023-04-10T00:16:11.059Z,101772.44
2023-04-10T00:18:39.057Z,101778.28
2023-04-10T00:21:08.508Z,101775.50
2023-04-10T00:23:36.377Z,101762.50
2023-04-10T00:26:04.351Z,101761.75
2023-04-10T00:28:32.536Z,101760.56
2023-04-10T00:31:00.583Z,101759.63
2023-04-10T00:33:28.435Z,101753.50
2023-04-10T00:35:56.374Z,101758.63
2023-04-10T00:38:23.934Z,101759.34
2023-04-10T00:40:51.694Z,101757.88
2023-04-10T00:43:20.403Z,101764.47
2023-04-10T00:45:49.899Z,101754.19
2023-04-10T00:48:18.259Z,101763.59
2023-04-10T00:50:47.539Z,101765.31
2023-04-10T00:53:15.687Z,101765.44
2023-04-10T00:55:42.993Z,101759.50
2023-04-10T00:58:14.852Z,101765.00
2023-04-10T01:00:42.612Z,101761.59
2023-04-10T01:03:10.396Z,101763.44
2023-04-10T01:05:45.034Z,101760.03
2023-04-10T01:08:18.674Z,101769.31
2023-04-10T01:10:48.984Z,101762.53
2023-04-10T01:13:36.655Z,101761.66
2023-04-10T01:16:11.489Z,101763.09
2023-04-10T01:18:44.768Z,101760.25
2023-04-10T01:21:12.698Z,101755.75
2023-04-10T01:24:10.097Z,101751.41
2023-04-10T01:27:17.865Z,101748.84
2023-04-10T01:29:47.283Z,101750.41
2023-04-10T01:32:21.732Z,101746.19
2023-04-10T01:34:52.495Z,101751.66
2023-04-10T01:37:28.725Z,101748.19
2023-04-10T01:40:02.784Z,101748.19
2023-04-10T01:42:40.326Z,101747.31
2023-04-10T01:45:08.449Z,101743.03
2023-04-10T01:47:36.943Z,101739.59
2023-04-10T01:50:06.560Z,101745.69
2023-04-10T01:52:34.112Z,101738.47
2023-04-10T01:55:02.117Z,101734.75
2023-04-10T01:57:31.741Z,101732.03
2023-04-10T01:59:59.962Z,101731.75
2023-04-10T02:02:31.449Z,101734.84
2023-04-10T02:04:59.664Z,101739.69
2023-04-10T02:07:51.337Z,101745.50
2023-04-10T02:10:21.462Z,101745.03
2023-04-10T02:13:20.945Z,101748.28
2023-04-10T02:15:48.952Z,101749.47
2023-04-10T02:18:17.532Z,101740.13
2023-04-10T02:20:44.918Z,101740.78
2023-04-10T02:23:12.697Z,101743.19
2023-04-10T02:25:40.272Z,101748.75
2023-04-10T02:28:08.531Z,101750.16
2023-04-10T02:30:36.824Z,101760.34
2023-04-10T02:33:05.586Z,101757.25
2023-04-10T02:35:34.419Z,101766.63
2023-04-10T02:38:01.936Z,101760.47
2023-04-10T02:40:29.572Z,101758.69
2023-04-10T02:42:57.448Z,101760.13
2023-04-10T02:45:25.509Z,101761.59
2023-04-10T02:47:53.430Z,101766.44
2023-04-10T02:50:20.986Z,101759.88
2023-04-10T02:52:48.516Z,101762.97
2023-04-10T02:55:16.629Z,101767.19
2023-04-10T02:57:44.475Z,101766.94
2023-04-10T03:00:15.269Z,101761.59
2023-04-10T03:02:43.354Z,101769.94
2023-04-10T03:05:11.712Z,101771.69
2023-04-10T03:07:39.590Z,101769.94
2023-04-10T03:10:10.429Z,101766.53
2023-04-10T03:12:38.287Z,101763.88
2023-04-10T03:15:08.989Z,101769.97
2023-04-10T03:17:37.413Z,101766.31
2023-04-10T03:20:06.453Z,101768.78
2023-04-10T03:22:35.769Z,101777.94
2023-04-10T03:25:03.494Z,101778.59
2023-04-10T03:27:32.318Z,101772.63
2023-04-10T03:30:00.375Z,101774.22
2023-04-10T03:32:28.390Z,101767.34
2023-04-10T03:34:56.061Z,101770.19
2023-04-10T03:37:24.242Z,101771.41
2023-04-10T03:39:52.259Z,101777.16
2023-04-10T03:42:19.902Z,101773.44
2023-04-10T03:44:47.763Z,101781.25
2023-04-10T03:47:16.049Z,101787.00
2023-04-10T03:49:43.938Z,101789.22
2023-04-10T03:52:11.977Z,101787.63
2023-04-10T03:54:40.218Z,101791.16
2023-04-10T03:57:08.388Z,101784.78
2023-04-10T03:59:38.793Z,101796.25
2023-04-10T04:02:08.209Z,101794.94
2023-04-10T04:04:36.373Z,101789.97
2023-04-10T04:07:04.711Z,101789.63
2023-04-10T04:09:32.763Z,101796.72
2023-04-10T04:12:00.700Z,101794.66
2023-04-10T04:14:28.694Z,101796.44
2023-04-10T04:16:56.969Z,101804.41
2023-04-10T04:19:24.816Z,101812.00
2023-04-10T04:21:53.098Z,101808.22
2023-04-10T04:24:21.931Z,101811.66
2023-04-10T04:26:49.493Z,101808.22
2023-04-10T04:29:17.767Z,101810.50
2023-04-10T04:31:45.439Z,101815.81
2023-04-10T04:34:13.070Z,101816.84
2023-04-10T04:36:40.852Z,101817.47
2023-04-10T04:39:08.750Z,101819.25
2023-04-10T04:41:36.300Z,101820.22
2023-04-10T04:44:04.531Z,101828.00
2023-04-10T04:46:32.478Z,101823.66
2023-04-10T04:49:00.546Z,101831.56
2023-04-10T04:51:28.629Z,101828.91
2023-04-10T04:54:00.262Z,101826.34
2023-04-10T04:56:28.387Z,101829.25
2023-04-10T04:58:56.569Z,101826.69
2023-04-10T05:01:24.627Z,101838.78
2023-04-10T05:03:52.851Z,101832.16
2023-04-10T05:06:21.724Z,101835.97
2023-04-10T05:08:49.859Z,101840.38
2023-04-10T05:11:17.461Z,101844.00
2023-04-10T05:13:45.175Z,101843.94
2023-04-10T05:16:13.083Z,101847.03
2023-04-10T05:18:41.628Z,101843.69
2023-04-10T05:21:09.762Z,101854.09
2023-04-10T05:23:37.897Z,101854.34
2023-04-10T05:26:06.447Z,101854.63
2023-04-10T05:28:34.416Z,101854.00
2023-04-10T05:31:02.507Z,101854.34
2023-04-10T05:33:30.037Z,101850.88
2023-04-10T05:35:57.941Z,101849.56
2023-04-10T05:38:25.572Z,101859.31
2023-04-10T05:40:53.508Z,101850.25
2023-04-10T05:43:22.078Z,101851.56
2023-04-10T05:45:50.285Z,101854.22
2023-04-10T05:48:19.270Z,101852.00
2023-04-10T05:50:48.057Z,101860.19
2023-04-10T05:53:15.667Z,101863.03
2023-04-10T05:55:43.643Z,101870.00
2023-04-10T05:58:14.282Z,101866.78
2023-04-10T06:00:42.562Z,101859.34
2023-04-10T06:03:10.189Z,101872.78
2023-04-10T06:05:38.424Z,101879.13
2023-04-10T06:08:06.569Z,101881.81
2023-04-10T06:10:34.619Z,101887.09
2023-04-10T06:13:02.636Z,101891.69
2023-04-10T06:15:30.380Z,101897.31
2023-04-10T06:17:58.018Z,101895.72
2023-04-10T06:20:26.050Z,101896.75
2023-04-10T06:22:54.676Z,101903.28
2023-04-10T06:25:25.595Z,101899.72
2023-04-10T06:27:53.282Z,101902.78
2023-04-10T06:30:21.645Z,101899.88
2023-04-10T06:32:49.260Z,101908.88
2023-04-10T06:35:17.084Z,101907.56
2023-04-10T06:37:45.124Z,101912.38
2023-04-10T06:40:14.179Z,101917.09
2023-04-10T06:42:41.901Z,101909.69
2023-04-10T06:45:11.098Z,101909.41
2023-04-10T06:47:39.053Z,101910.75
2023-04-10T06:50:08.403Z,101916.94
2023-04-10T06:52:36.366Z,101900.91
2023-04-10T06:55:05.586Z,101903.84
2023-04-10T06:57:33.768Z,101895.59
2023-04-10T07:00:01.789Z,101899.66
2023-04-10T07:02:29.609Z,101901.94
2023-04-10T07:04:57.091Z,101889.25
2023-04-10T07:07:24.832Z,101885.56
2023-04-10T07:09:52.340Z,101893.44
2023-04-10T07:12:20.406Z,101891.41
2023-04-10T07:14:48.388Z,101882.34
2023-04-10T07:17:16.089Z,101887.09
2023-04-10T07:19:44.625Z,101887.56
2023-04-10T07:22:12.604Z,101887.09
2023-04-10T07:24:40.281Z,101876.50
2023-04-10T07:27:08.363Z,101886.25
2023-04-10T07:29:35.977Z,101885.69
2023-04-10T07:32:04.290Z,101884.31
2023-04-10T07:34:31.867Z,101883.56
2023-04-10T07:36:59.876Z,101884.06
2023-04-10T07:39:27.717Z,101881.84
2023-04-10T07:41:55.637Z,101874.28
2023-04-10T07:44:23.195Z,101875.44
2023-04-10T07:47:01.479Z,101878.38
2023-04-10T07:49:29.325Z,101881.34
2023-04-10T07:51:57.026Z,101879.81
2023-04-10T07:54:24.759Z,101879.25
2023-04-10T07:56:55.205Z,101882.81
2023-04-10T07:59:23.328Z,101887.28
2023-04-10T08:01:51.533Z,101888.53
2023-04-10T08:04:19.908Z,101891.41
2023-04-10T08:06:48.067Z,101884.88
2023-04-10T08:09:15.708Z,101890.28
2023-04-10T08:11:43.920Z,101888.00
2023-04-10T08:14:13.531Z,101897.56
2023-04-10T08:16:46.592Z,101897.63
2023-04-10T08:19:14.456Z,101897.69
2023-04-10T08:21:42.310Z,101902.03
2023-04-10T08:24:09.944Z,101901.38
2023-04-10T08:26:37.778Z,101894.84
2023-04-10T08:29:05.635Z,101897.09
2023-04-10T08:31:34.146Z,101891.31
2023-04-10T08:34:02.084Z,101898.41
2023-04-10T08:36:29.973Z,101894.53
2023-04-10T08:38:58.020Z,101893.00
2023-04-10T08:41:25.741Z,101887.38
2023-04-10T08:43:53.765Z,101896.84
2023-04-10T08:46:21.192Z,101891.09
2023-04-10T08:49:00.532Z,101893.06
2023-04-10T08:51:32.299Z,101889.06
2023-04-10T08:54:02.496Z,101891.06
2023-04-10T08:56:29.745Z,101886.06
2023-04-10T08:58:57.511Z,101883.63
2023-04-10T09:01:25.748Z,101884.66
2023-04-10T09:03:54.036Z,101885.88
2023-04-10T09:06:25.931Z,101874.69
2023-04-10T09:08:53.964Z,101874.78
2023-04-10T09:11:21.903Z,101874.38
2023-04-10T09:13:49.651Z,101872.09
2023-04-10T09:16:17.721Z,101874.78
2023-04-10T09:18:50.995Z,101885.75
2023-04-10T09:21:20.486Z,101873.06
2023-04-10T09:23:49.798Z,101881.34
2023-04-10T09:26:26.114Z,101883.38
2023-04-10T09:29:07.002Z,101877.94
2023-04-10T09:31:34.927Z,101875.84
2023-04-10T09:34:07.768Z,101872.09
2023-04-10T09:36:35.457Z,101880.81
2023-04-10T09:39:05.275Z,101875.75
2023-04-10T09:41:33.227Z,101880.19
2023-04-10T09:44:11.519Z,101887.72
2023-04-10T09:46:42.229Z,101884.63
2023-04-10T09:49:10.129Z,101884.63
2023-04-10T09:51:39.512Z,101884.44
2023-04-10T09:54:07.245Z,101876.72
2023-04-10T09:56:35.542Z,101878.53
2023-04-10T09:59:04.852Z,101876.59
2023-04-10T10:01:34.727Z,101871.31
2023-04-10T10:04:03.342Z,101866.72
2023-04-10T10:06:33.752Z,101864.38
2023-04-10T10:09:05.375Z,101860.97
2023-04-10T10:11:36.043Z,101849.53
2023-04-10T10:14:04.663Z,101852.13
2023-04-10T10:16:58.418Z,101845.03
2023-04-10T10:19:39.238Z,101841.13
2023-04-10T10:22:26.717Z,101837.31
2023-04-10T10:24:56.792Z,101841.00
2023-04-10T10:27:24.197Z,101841.09
2023-04-10T10:29:51.969Z,101841.16
2023-04-10T10:32:22.856Z,101835.03
2023-04-10T10:34:53.078Z,101839.66
2023-04-10T10:37:42.972Z,101838.00
2023-04-10T10:40:15.309Z,101835.13
2023-04-10T10:42:56.548Z,101835.38
2023-04-10T10:45:56.094Z,101827.72
2023-04-10T10:48:29.549Z,101819.47
2023-04-10T10:50:59.067Z,101822.16
2023-04-10T10:53:46.550Z,101811.28
2023-04-10T10:56:19.454Z,101821.75
2023-04-10T10:58:50.791Z,101821.19
2023-04-10T11:01:18.333Z,101813.25
2023-04-10T11:03:46.615Z,101809.16
2023-04-10T11:06:17.256Z,101794.19
2023-04-10T11:08:48.000Z,101801.41
2023-04-10T11:11:20.182Z,101798.38
2023-04-10T11:13:50.261Z,101798.81
2023-04-10T11:16:18.563Z,101793.09
2023-04-10T11:18:45.253Z,101780.66
2023-04-10T11:21:17.270Z,101774.28
2023-04-10T11:23:50.502Z,101782.22
2023-04-10T11:26:35.906Z,101775.94
2023-04-10T11:29:17.909Z,101783.31
2023-04-10T11:31:45.550Z,101775.84
2023-04-10T11:34:12.776Z,101770.94
2023-04-10T11:36:43.581Z,101758.03
2023-04-10T11:39:16.041Z,101768.34
2023-04-10T11:41:49.236Z,101757.81
2023-04-10T11:44:17.914Z,101761.34
2023-04-10T11:46:47.302Z,101763.59
2023-04-10T11:49:19.811Z,101759.69
2023-04-10T11:51:50.374Z,101753.75
2023-04-10T11:54:18.518Z,101749.44
2023-04-10T11:56:55.414Z,101742.56
2023-04-10T11:59:23.948Z,101750.50
2023-04-10T12:01:54.180Z,101747.00
2023-04-10T12:04:23.671Z,101739.91
2023-04-10T12:06:56.013Z,101738.28
2023-04-10T12:09:23.140Z,101734.03
2023-04-10T12:12:00.617Z,101746.19
2023-04-10T12:14:34.440Z,101734.03
2023-04-10T12:17:02.577Z,101733.22
2023-04-10T12:19:29.913Z,101724.47
2023-04-10T12:21:57.501Z,101723.53
2023-04-10T12:24:54.018Z,101726.03
2023-04-10T12:27:27.763Z,101722.25
2023-04-10T12:29:57.086Z,101722.00
2023-04-10T12:32:25.144Z,101719.69
2023-04-10T12:34:58.611Z,101725.00
2023-04-10T12:37:30.342Z,101722.94
2023-04-10T12:40:27.826Z,101715.72
2023-04-10T12:42:55.666Z,101709.84
2023-04-10T12:45:23.623Z,101708.25
2023-04-10T12:47:53.794Z,101706.34
2023-04-10T12:50:21.750Z,101707.47
2023-04-10T12:53:09.525Z,101701.25
2023-04-10T12:55:37.659Z,101691.47
2023-04-10T12:58:18.404Z,101700.84
2023-04-10T13:00:46.740Z,101700.34
2023-04-10T13:03:14.379Z,101689.22
2023-04-10T13:05:46.093Z,101681.38
2023-04-10T13:08:14.746Z,101690.22
2023-04-10T13:10:43.640Z,101688.91
2023-04-10T13:13:14.421Z,101689.00
2023-04-10T13:15:42.898Z,101678.56
2023-04-10T13:18:10.898Z,101676.09
2023-04-10T13:20:39.922Z,101678.59
2023-04-10T13:23:08.005Z,101681.78
2023-04-10T13:25:40.031Z,101677.84
2023-04-10T13:28:11.546Z,101668.91
2023-04-10T13:30:40.405Z,101670.47
2023-04-10T13:33:08.587Z,101669.91
2023-04-10T13:35:36.487Z,101666.03
2023-04-10T13:38:04.978Z,101672.38
2023-04-10T13:40:34.965Z,101674.59
2023-04-10T13:43:03.352Z,101665.47
2023-04-10T13:45:31.071Z,101666.81
2023-04-10T13:47:59.218Z,101660.16
2023-04-10T13:50:27.715Z,101663.56
2023-04-10T13:52:55.674Z,101657.75
2023-04-10T13:55:23.206Z,101667.09
2023-04-10T13:57:50.986Z,101658.66
2023-04-10T14:00:19.919Z,101650.59
2023-04-10T14:02:47.790Z,101649.00
2023-04-10T14:05:15.467Z,101650.25
2023-04-10T14:07:43.082Z,101649.94
2023-04-10T14:10:12.624Z,101640.41
2023-04-10T14:12:40.315Z,101636.16
2023-04-10T14:15:10.785Z,101632.19
2023-04-10T14:17:38.861Z,101635.84
2023-04-10T14:20:11.587Z,101634.75
2023-04-10T14:22:39.685Z,101623.38
2023-04-10T14:25:15.925Z,101631.00
2023-04-10T14:27:43.685Z,101633.41
2023-04-10T14:30:12.540Z,101629.38
2023-04-10T14:32:40.520Z,101625.19
2023-04-10T14:35:08.066Z,101627.91
2023-04-10T14:37:36.113Z,101620.41
2023-04-10T14:40:05.043Z,101616.88
2023-04-10T14:42:36.497Z,101608.94
2023-04-10T14:45:05.665Z,101610.94
2023-04-10T14:47:33.314Z,101611.69
2023-04-10T14:50:01.387Z,101605.78
2023-04-10T14:52:29.045Z,101601.66
2023-04-10T14:54:57.603Z,101598.78
2023-04-10T14:57:25.571Z,101600.03
2023-04-10T14:59:54.694Z,101597.00
2023-04-10T15:02:22.910Z,101590.00
2023-04-10T15:04:50.848Z,101581.00
2023-04-10T15:07:18.995Z,101586.28
2023-04-10T15:09:46.604Z,101582.09
2023-04-10T15:12:14.669Z,101581.81
2023-04-10T15:14:42.985Z,101577.09
2023-04-10T15:17:11.124Z,101583.44
2023-04-10T15:19:39.291Z,101577.75
2023-04-10T15:22:07.321Z,101567.56
2023-04-10T15:24:47.070Z,101574.69
2023-04-10T15:27:19.230Z,101574.69
2023-04-10T15:29:47.392Z,101580.78
2023-04-10T15:32:15.635Z,101576.78
2023-04-10T15:34:48.424Z,101580.66
2023-04-10T15:37:16.320Z,101581.81
2023-04-10T15:39:44.644Z,101575.81
2023-04-10T15:42:12.215Z,101578.97
2023-04-10T15:44:40.127Z,101584.59
2023-04-10T15:47:08.210Z,101577.03
2023-04-10T15:49:38.738Z,101575.84
2023-04-10T15:52:10.991Z,101572.69
2023-04-10T15:54:39.588Z,101561.38
2023-04-10T15:57:07.583Z,101565.97
2023-04-10T15:59:35.957Z,101567.72
2023-04-10T16:02:03.689Z,101572.13
2023-04-10T16:04:31.870Z,101568.38
2023-04-10T16:06:59.520Z,101557.31
2023-04-10T16:09:27.395Z,101570.66
2023-04-10T16:11:56.111Z,101565.44
2023-04-10T16:14:23.846Z,101568.94
2023-04-10T16:16:51.467Z,101560.28
2023-04-10T16:19:22.095Z,101556.81
2023-04-10T16:21:50.356Z,101561.22
2023-04-10T16:24:18.197Z,101546.38
2023-04-10T16:26:46.155Z,101549.84
2023-04-10T16:29:13.669Z,101548.97
2023-04-10T16:31:41.866Z,101550.72
2023-04-10T16:34:10.127Z,101551.59
2023-04-10T16:36:38.804Z,101548.94
2023-04-10T16:39:07.429Z,101547.97
2023-04-10T16:41:34.588Z,101550.47
2023-04-10T16:44:02.065Z,101545.94
2023-04-10T16:46:31.362Z,101549.41
2023-04-10T16:48:59.113Z,101547.81
2023-04-10T16:51:27.544Z,101547.88
2023-04-10T16:53:55.602Z,101550.59
2023-04-10T16:56:29.245Z,101554.22
2023-04-10T16:58:57.493Z,101553.38
2023-04-10T17:01:25.677Z,101550.59
2023-04-10T17:03:54.280Z,101560.03
2023-04-10T17:06:22.293Z,101559.03
2023-04-10T17:08:50.226Z,101553.66
2023-04-10T17:11:17.773Z,101559.59
2023-04-10T17:13:46.608Z,101555.09
2023-04-10T17:16:14.639Z,101547.94
2023-04-10T17:18:42.895Z,101550.34
2023-04-10T17:21:13.360Z,101552.81
2023-04-10T17:23:41.323Z,101552.66
2023-04-10T17:26:14.675Z,101549.81
2023-04-10T17:28:46.588Z,101540.94
2023-04-10T17:31:14.994Z,101544.25
2023-04-10T17:33:42.977Z,101539.72
2023-04-10T17:36:13.615Z,101533.50
2023-04-10T17:38:41.449Z,101534.22
2023-04-10T17:41:09.299Z,101527.22
2023-04-10T17:43:37.048Z,101535.75
2023-04-10T17:46:05.323Z,101529.34
2023-04-10T17:48:34.582Z,101528.34
2023-04-10T17:51:06.841Z,101523.75
2023-04-10T17:53:34.343Z,101520.16
2023-04-10T17:56:02.872Z,101528.81
2023-04-10T17:58:31.150Z,101519.09
2023-04-10T18:00:58.873Z,101519.81
2023-04-10T18:03:26.597Z,101518.84
2023-04-10T18:05:54.691Z,101519.63
2023-04-10T18:08:22.775Z,101522.91
2023-04-10T18:10:50.365Z,101527.00
2023-04-10T18:13:18.492Z,101527.75
2023-04-10T18:15:47.682Z,101527.63
2023-04-10T18:18:15.682Z,101532.66
2023-04-10T18:20:43.295Z,101542.97
2023-04-10T18:23:11.253Z,101540.94
2023-04-10T18:25:39.862Z,101551.22
2023-04-10T18:30:39.659Z,101552.59
2023-04-10T18:33:14.961Z,101548.91
2023-04-10T18:35:42.562Z,101558.25
2023-04-10T18:38:10.545Z,101550.22
2023-04-10T18:40:38.493Z,101553.59
2023-04-10T18:43:06.392Z,101555.13
2023-04-10T18:45:34.299Z,101555.03
2023-04-10T18:48:02.490Z,101549.81
2023-04-10T18:50:31.089Z,101552.09
2023-04-10T18:52:58.773Z,101557.16
2023-04-10T18:55:26.374Z,101559.78
2023-04-10T18:57:54.677Z,101552.16
2023-04-10T19:00:24.189Z,101555.47
2023-04-10T19:02:52.348Z,101553.75
2023-04-10T19:05:20.497Z,101547.59
2023-04-10T19:08:00.650Z,101557.81
2023-04-10T19:10:31.769Z,101565.41
2023-04-10T19:12:59.934Z,101573.81
2023-04-10T19:15:27.939Z,101569.22
2023-04-10T19:17:55.752Z,101570.72
2023-04-10T19:20:52.419Z,101571.53
2023-04-10T19:23:11.423Z,101581.66
2023-04-10T19:25:39.381Z,101581.41
2023-04-10T19:28:07.247Z,101582.25
2023-04-10T19:30:35.319Z,101586.34
2023-04-10T19:33:04.256Z,101571.72
2023-04-10T19:35:32.238Z,101574.38
2023-04-10T19:37:59.872Z,101574.38
2023-04-10T19:40:27.902Z,101572.59
2023-04-10T19:42:57.431Z,101561.25
2023-04-10T19:45:29.533Z,101570.81
2023-04-10T19:47:57.636Z,101561.25
2023-04-10T19:50:45.884Z,101569.19
2023-04-10T19:53:15.659Z,101562.50
2023-04-10T19:55:45.080Z,101562.41
2023-04-10T19:58:29.902Z,101564.06
2023-04-10T20:01:24.734Z,101570.13
2023-04-10T20:03:52.564Z,101571.78
2023-04-10T20:06:21.819Z,101564.78
2023-04-10T20:08:49.632Z,101558.63
2023-04-10T20:11:17.230Z,101560.44
2023-04-10T20:13:44.708Z,101549.22
2023-04-10T20:16:12.500Z,101551.81
2023-04-10T20:18:40.793Z,101546.56
2023-04-10T20:21:09.170Z,101536.22
2023-04-10T20:23:38.065Z,101540.47
2023-04-10T20:26:06.478Z,101536.13
2023-04-10T20:28:34.169Z,101528.28
2023-04-10T20:31:02.123Z,101534.38
2023-04-10T20:33:30.058Z,101525.53
2023-04-10T20:35:58.024Z,101532.94
2023-04-10T20:38:25.853Z,101524.56
2023-04-10T20:40:54.082Z,101534.38
2023-04-10T20:43:22.059Z,101521.88
2023-04-10T20:45:50.098Z,101524.06
2023-04-10T20:48:17.733Z,101514.16
2023-04-10T20:50:46.788Z,101521.63
2023-04-10T20:53:14.965Z,101522.44
2023-04-10T20:55:43.516Z,101528.34
2023-04-10T20:58:11.002Z,101527.97
2023-04-10T21:00:39.696Z,101532.38
2023-04-10T21:03:08.156Z,101534.16
2023-04-10T21:05:39.472Z,101534.06
2023-04-10T21:08:07.607Z,101543.25
2023-04-10T21:10:35.293Z,101546.88
2023-04-10T21:13:04.118Z,101543.88
2023-04-10T21:15:31.731Z,101545.22
2023-04-10T21:17:59.868Z,101548.47
2023-04-10T21:20:27.962Z,101549.84
2023-04-10T21:22:56.149Z,101553.16
2023-04-10T21:25:24.122Z,101550.44
2023-04-10T21:27:52.191Z,101553.94
2023-04-10T21:30:21.962Z,101552.31
2023-04-10T21:32:49.435Z,101560.28
2023-04-10T21:35:17.855Z,101561.91
2023-04-10T21:37:46.011Z,101565.22
2023-04-10T21:40:16.471Z,101569.66
2023-04-10T21:42:44.583Z,101569.13
2023-04-10T21:45:15.822Z,101560.75
2023-04-10T21:47:43.673Z,101552.22
2023-04-10T21:50:12.588Z,101547.06
2023-04-10T21:52:40.145Z,101541.75
2023-04-10T21:55:11.470Z,101526.31
2023-04-10T21:57:39.786Z,101526.41
2023-04-10T22:00:10.317Z,101515.34
2023-04-10T22:02:38.443Z,101512.75
2023-04-10T22:05:05.774Z,101516.06
2023-04-10T22:07:33.861Z,101510.91
2023-04-10T22:10:01.265Z,101525.06
2023-04-10T22:12:29.636Z,101521.16
2023-04-10T22:14:57.759Z,101512.59
2023-04-10T22:17:25.763Z,101514.22
2023-04-10T22:19:53.662Z,101520.31
2023-04-10T22:22:21.787Z,101515.88
2023-04-10T22:24:49.807Z,101517.53
2023-04-10T22:27:18.101Z,101524.94
2023-04-10T22:29:56.206Z,101526.34
2023-04-10T22:32:30.619Z,101535.53
2023-04-10T22:35:00.287Z,101537.81
2023-04-10T22:37:28.250Z,101545.31
2023-04-10T22:39:56.367Z,101545.84
2023-04-10T22:42:24.771Z,101546.59
2023-04-10T22:44:53.081Z,101538.84
2023-04-10T22:47:20.645Z,101532.28
2023-04-10T22:49:48.227Z,101539.22
2023-04-10T22:52:16.337Z,101536.63
2023-04-10T22:54:44.443Z,101542.75
2023-04-10T22:57:12.541Z,101546.72
2023-04-10T22:59:40.518Z,101543.22
2023-04-10T23:02:08.644Z,101540.16
2023-04-10T23:04:36.161Z,101538.31
2023-04-10T23:07:04.037Z,101543.00
2023-04-10T23:09:32.810Z,101535.34
2023-04-10T23:12:01.427Z,101531.88
2023-04-10T23:14:29.758Z,101536.66
2023-04-10T23:16:57.753Z,101533.22
2023-04-10T23:19:25.986Z,101530.78
2023-04-10T23:21:53.726Z,101521.63
2023-04-10T23:24:21.785Z,101530.53
2023-04-10T23:26:49.248Z,101533.84
2023-04-10T23:29:17.247Z,101543.06
2023-04-10T23:31:45.261Z,101541.56
2023-04-10T23:34:12.988Z,101535.16
2023-04-10T23:36:42.796Z,101522.84
2023-04-10T23:39:10.409Z,101515.03
2023-04-10T23:41:38.172Z,101510.88
2023-04-10T23:44:06.437Z,101495.25
2023-04-10T23:46:34.518Z,101477.22
2023-04-10T23:49:02.415Z,101476.50
2023-04-10T23:51:32.036Z,101466.44
2023-04-10T23:53:59.617Z,101458.06
2023-04-10T23:56:29.382Z,101462.22
2023-04-10T23:58:56.995Z,101461.84
